Gotha, Florida
Current Conditions -  °F | °C
As of 12:47 AM on Monday 22 Dec 2014 (Local Time) from KORL Reporting Station
Moderate Rain Moderate Rain  
Wind Chill: 64°   Ceiling: 1300
Heat Index: 64°   Visibility: 3mi
Dew Point: 64°   Wind: 6mph
Humidity: 100%   Direction: 340°NNW
Pressure: 30.06"   Gusts: NA
Location:  28.53°N, 81.52°W
Report Text: KORL 220547Z AUTO 34005KT 3SM RA BR BKN013 OVC018 18/18 A3006 RMK AO2 LTG DSNT SE P0018
Loading
Personal Weather Stations






























Interactive Weather Map New forecast layout! Learn more

10-Day Weather Forecast

Advertisements
Track Severe Weather on mobile